WZZ391 EFHK-EPWA
Flight info
| Callsign | WZZ391 |
|---|---|
| Flight time | 1h 37m |
| Altitude | 38000 |
| Route | KOIVU DCT LARTI DCT NAVOT DCT LUTAL DCT BERIL DCT NAPOT DCT SUWGI DCT NORNO DCT BULEP DCT XESNA DCT GERVI DCT NEPOX |
| Aircraft | A20N/M-SDE2E3FGHIRWXY/LB1 |
Departure
| Time | 2026-05-05 19:11 |
|---|---|
| Airport | Helsinki Vantaa Airport (EFHK) |
Arrival
| Time | 2026-05-05 20:48 |
|---|---|
| Airport | Warsaw Chopin Airport (EPWA) |
| Time | Latitude | Longitude | Altitude | Speed | Heading |
|---|---|---|---|---|---|
| 2026-05-05 18:32 | 60.31501 | 24.95728 | 163 ft | 0 kts | 137° |
| 2026-05-05 19:04 | 60.31502 | 24.95726 | 163 ft | 1 kts | 137° |
| 2026-05-05 19:04 | 60.31521 | 24.95691 | 163 ft | 3 kts | 137° |
| 2026-05-05 19:04 | 60.31540 | 24.95654 | 163 ft | 3 kts | 126° |
| 2026-05-05 19:05 | 60.31551 | 24.95608 | 163 ft | 4 kts | 90° |
| 2026-05-05 19:05 | 60.31546 | 24.95572 | 163 ft | 1 kts | 47° |
| 2026-05-05 19:05 | 60.31544 | 24.95567 | 163 ft | 0 kts | 47° |
| 2026-05-05 19:08 | 60.31546 | 24.95571 | 163 ft | 2 kts | 47° |
| 2026-05-05 19:08 | 60.31574 | 24.95628 | 163 ft | 10 kts | 43° |
| 2026-05-05 19:08 | 60.31623 | 24.95710 | 163 ft | 6 kts | 37° |
| 2026-05-05 19:08 | 60.31695 | 24.95839 | 163 ft | 14 kts | 37° |
| 2026-05-05 19:09 | 60.31759 | 24.95979 | 164 ft | 30 kts | 49° |
| 2026-05-05 19:09 | 60.31875 | 24.96128 | 164 ft | 12 kts | 307° |
| 2026-05-05 19:09 | 60.31961 | 24.96055 | 164 ft | 14 kts | 46° |
| 2026-05-05 19:09 | 60.32123 | 24.96391 | 164 ft | 57 kts | 47° |
| 2026-05-05 19:10 | 60.32406 | 24.97009 | 165 ft | 62 kts | 49° |
| 2026-05-05 19:10 | 60.32670 | 24.97599 | 162 ft | 55 kts | 47° |
| 2026-05-05 19:10 | 60.32900 | 24.97963 | 159 ft | 34 kts | 347° |
| 2026-05-05 19:10 | 60.32947 | 24.97681 | 161 ft | 20 kts | 241° |
| 2026-05-05 19:11 | 60.32844 | 24.97428 | 161 ft | 40 kts | 227° |
| 2026-05-05 19:11 | 60.32457 | 24.96571 | 164 ft | 121 kts | 228° |
| 2026-05-05 19:11 | 60.31774 | 24.95082 | 410 ft | 153 kts | 227° |
| 2026-05-05 19:11 | 60.31016 | 24.93501 | 1122 ft | 166 kts | 227° |
| 2026-05-05 19:12 | 60.30083 | 24.91922 | 1775 ft | 189 kts | 222° |
| 2026-05-05 19:12 | 60.28910 | 24.90340 | 2520 ft | 211 kts | 216° |
| 2026-05-05 19:12 | 60.27579 | 24.88796 | 3371 ft | 231 kts | 212° |
| 2026-05-05 19:12 | 60.26145 | 24.87250 | 4468 ft | 237 kts | 211° |
| 2026-05-05 19:13 | 60.24669 | 24.85679 | 4852 ft | 242 kts | 211° |
| 2026-05-05 19:13 | 60.23102 | 24.84277 | 5040 ft | 249 kts | 201° |
| 2026-05-05 19:13 | 60.21406 | 24.83476 | 5933 ft | 250 kts | 195° |
| 2026-05-05 19:13 | 60.19760 | 24.82744 | 7461 ft | 244 kts | 197° |
| 2026-05-05 19:14 | 60.18094 | 24.81974 | 8882 ft | 248 kts | 197° |
| 2026-05-05 19:14 | 60.16403 | 24.81183 | 10229 ft | 251 kts | 198° |
| 2026-05-05 19:14 | 60.14728 | 24.80414 | 11724 ft | 243 kts | 200° |
| 2026-05-05 19:14 | 60.13048 | 24.79645 | 12908 ft | 255 kts | 201° |
| 2026-05-05 19:15 | 60.11247 | 24.78799 | 13724 ft | 276 kts | 201° |
| 2026-05-05 19:15 | 60.09329 | 24.77895 | 14299 ft | 299 kts | 201° |
| 2026-05-05 19:15 | 60.07206 | 24.76908 | 14933 ft | 317 kts | 201° |
| 2026-05-05 19:15 | 60.05068 | 24.75942 | 15959 ft | 322 kts | 201° |
| 2026-05-05 19:16 | 60.02868 | 24.74957 | 17031 ft | 326 kts | 201° |
| 2026-05-05 19:16 | 60.00643 | 24.73956 | 18061 ft | 330 kts | 201° |
| 2026-05-05 19:16 | 59.98381 | 24.72934 | 18961 ft | 335 kts | 202° |
| 2026-05-05 19:16 | 59.96096 | 24.71888 | 19494 ft | 339 kts | 202° |
| 2026-05-05 19:17 | 59.93786 | 24.70827 | 19956 ft | 344 kts | 202° |
| 2026-05-05 19:17 | 59.91435 | 24.69831 | 20915 ft | 347 kts | 200° |
| 2026-05-05 19:17 | 59.89044 | 24.68915 | 21790 ft | 352 kts | 200° |
| 2026-05-05 19:17 | 59.86619 | 24.67995 | 22628 ft | 357 kts | 200° |
| 2026-05-05 19:18 | 59.84190 | 24.67060 | 23448 ft | 362 kts | 200° |
| 2026-05-05 19:18 | 59.81708 | 24.66090 | 24151 ft | 366 kts | 200° |
| 2026-05-05 19:18 | 59.79201 | 24.65104 | 24863 ft | 370 kts | 200° |
| 2026-05-05 19:18 | 59.76657 | 24.64098 | 25540 ft | 374 kts | 200° |
| 2026-05-05 19:19 | 59.74095 | 24.63086 | 26196 ft | 378 kts | 200° |
| 2026-05-05 19:19 | 59.71500 | 24.62062 | 26843 ft | 382 kts | 200° |
| 2026-05-05 19:19 | 59.68878 | 24.61031 | 27478 ft | 386 kts | 200° |
| 2026-05-05 19:19 | 59.66229 | 24.59992 | 28070 ft | 390 kts | 200° |
| 2026-05-05 19:20 | 59.63585 | 24.58957 | 28646 ft | 394 kts | 200° |
| 2026-05-05 19:20 | 59.60848 | 24.57888 | 29218 ft | 398 kts | 200° |
| 2026-05-05 19:20 | 59.58110 | 24.56821 | 29767 ft | 402 kts | 200° |
| 2026-05-05 19:20 | 59.55396 | 24.55764 | 30243 ft | 406 kts | 200° |
| 2026-05-05 19:21 | 59.52601 | 24.54677 | 30708 ft | 409 kts | 199° |
| 2026-05-05 19:21 | 59.49799 | 24.53591 | 31200 ft | 412 kts | 199° |
| 2026-05-05 19:21 | 59.46982 | 24.52502 | 31772 ft | 413 kts | 199° |
| 2026-05-05 19:21 | 59.44160 | 24.51415 | 32390 ft | 412 kts | 199° |
| 2026-05-05 19:22 | 59.41386 | 24.50348 | 33002 ft | 411 kts | 199° |
| 2026-05-05 19:22 | 59.38584 | 24.49270 | 33587 ft | 411 kts | 199° |
| 2026-05-05 19:22 | 59.35781 | 24.48193 | 34117 ft | 410 kts | 199° |
| 2026-05-05 19:22 | 59.32973 | 24.47111 | 34523 ft | 412 kts | 199° |
| 2026-05-05 19:23 | 59.30151 | 24.46025 | 34907 ft | 414 kts | 199° |
| 2026-05-05 19:23 | 59.27322 | 24.44940 | 35304 ft | 416 kts | 198° |
| 2026-05-05 19:23 | 59.24481 | 24.43852 | 35678 ft | 417 kts | 198° |
| 2026-05-05 19:23 | 59.21621 | 24.42761 | 36067 ft | 419 kts | 198° |
| 2026-05-05 19:24 | 59.18753 | 24.41669 | 36437 ft | 420 kts | 198° |
| 2026-05-05 19:24 | 59.15872 | 24.40574 | 36808 ft | 422 kts | 198° |
| 2026-05-05 19:24 | 59.13024 | 24.39494 | 37172 ft | 423 kts | 197° |
| 2026-05-05 19:24 | 59.10137 | 24.38401 | 37532 ft | 425 kts | 197° |
| 2026-05-05 19:25 | 59.07233 | 24.37304 | 37793 ft | 426 kts | 197° |
| 2026-05-05 19:25 | 59.04314 | 24.36205 | 37866 ft | 425 kts | 197° |
| 2026-05-05 19:25 | 58.98527 | 24.34033 | 37850 ft | 424 kts | 197° |
| 2026-05-05 19:26 | 58.92728 | 24.31859 | 37861 ft | 424 kts | 197° |
| 2026-05-05 19:26 | 58.86975 | 24.29711 | 37860 ft | 424 kts | 197° |
| 2026-05-05 19:27 | 58.81171 | 24.27551 | 37860 ft | 424 kts | 197° |
| 2026-05-05 19:27 | 58.75366 | 24.25398 | 37862 ft | 424 kts | 197° |
| 2026-05-05 19:28 | 58.69593 | 24.23263 | 37867 ft | 425 kts | 197° |
| 2026-05-05 19:28 | 58.63772 | 24.21119 | 37875 ft | 425 kts | 197° |
| 2026-05-05 19:29 | 58.57980 | 24.18993 | 37878 ft | 425 kts | 197° |
| 2026-05-05 19:29 | 58.52211 | 24.16883 | 37881 ft | 425 kts | 197° |
| 2026-05-05 19:30 | 58.46396 | 24.14764 | 37887 ft | 425 kts | 197° |
| 2026-05-05 19:30 | 58.40586 | 24.12653 | 37884 ft | 425 kts | 197° |
| 2026-05-05 19:31 | 58.34780 | 24.10551 | 37885 ft | 425 kts | 197° |
| 2026-05-05 19:31 | 58.29012 | 24.08470 | 37886 ft | 424 kts | 196° |
| 2026-05-05 19:32 | 58.23201 | 24.06379 | 37889 ft | 424 kts | 196° |
| 2026-05-05 19:32 | 58.17393 | 24.04297 | 37881 ft | 424 kts | 196° |
| 2026-05-05 19:33 | 58.11636 | 24.02240 | 37885 ft | 424 kts | 196° |
| 2026-05-05 19:33 | 58.05807 | 24.00164 | 37890 ft | 424 kts | 196° |
| 2026-05-05 19:34 | 58.00015 | 23.98107 | 37889 ft | 424 kts | 196° |
| 2026-05-05 19:35 | 57.91325 | 23.95034 | 37889 ft | 424 kts | 196° |
| 2026-05-05 19:35 | 57.85558 | 23.93004 | 37889 ft | 424 kts | 196° |
| 2026-05-05 19:36 | 57.79730 | 23.90958 | 37882 ft | 425 kts | 196° |
| 2026-05-05 19:36 | 57.73950 | 23.88936 | 37891 ft | 425 kts | 196° |
| 2026-05-05 19:37 | 57.68110 | 23.86899 | 37886 ft | 426 kts | 196° |
| 2026-05-05 19:37 | 57.62298 | 23.84879 | 37894 ft | 426 kts | 196° |
| 2026-05-05 19:38 | 57.56492 | 23.82868 | 37901 ft | 426 kts | 196° |
| 2026-05-05 19:38 | 57.50656 | 23.80852 | 37900 ft | 426 kts | 196° |
| 2026-05-05 19:39 | 57.44843 | 23.78852 | 37901 ft | 426 kts | 196° |
| 2026-05-05 19:39 | 57.39004 | 23.76849 | 37902 ft | 426 kts | 196° |
| 2026-05-05 19:40 | 57.33196 | 23.74863 | 37902 ft | 426 kts | 196° |
| 2026-05-05 19:40 | 57.27370 | 23.72877 | 37900 ft | 426 kts | 195° |
| 2026-05-05 19:41 | 57.21579 | 23.70909 | 37899 ft | 425 kts | 195° |
| 2026-05-05 19:41 | 57.15736 | 23.68930 | 37909 ft | 425 kts | 195° |
| 2026-05-05 19:42 | 57.09943 | 23.66974 | 37910 ft | 425 kts | 195° |
| 2026-05-05 19:42 | 57.04151 | 23.65025 | 37905 ft | 425 kts | 195° |
| 2026-05-05 19:43 | 56.98345 | 23.63077 | 37900 ft | 424 kts | 195° |
| 2026-05-05 19:43 | 56.92526 | 23.61131 | 37913 ft | 424 kts | 195° |
| 2026-05-05 19:44 | 56.86713 | 23.59193 | 37898 ft | 424 kts | 195° |
| 2026-05-05 19:44 | 56.80947 | 23.57276 | 37905 ft | 424 kts | 195° |
| 2026-05-05 19:45 | 56.75122 | 23.55346 | 37904 ft | 424 kts | 195° |
| 2026-05-05 19:45 | 56.69295 | 23.53422 | 37900 ft | 424 kts | 195° |
| 2026-05-05 19:46 | 56.63518 | 23.51520 | 37898 ft | 424 kts | 195° |
| 2026-05-05 19:46 | 56.57696 | 23.49609 | 37895 ft | 424 kts | 195° |
| 2026-05-05 19:47 | 56.51913 | 23.47717 | 37893 ft | 424 kts | 195° |
| 2026-05-05 19:47 | 56.46097 | 23.45819 | 37894 ft | 424 kts | 195° |
| 2026-05-05 19:48 | 56.40282 | 23.43925 | 37891 ft | 424 kts | 195° |
| 2026-05-05 19:48 | 56.34434 | 23.42271 | 37891 ft | 427 kts | 191° |
| 2026-05-05 19:49 | 56.28551 | 23.41191 | 37890 ft | 427 kts | 191° |
| 2026-05-05 19:49 | 56.22631 | 23.40080 | 37884 ft | 427 kts | 191° |
| 2026-05-05 19:50 | 56.16719 | 23.38975 | 37884 ft | 427 kts | 191° |
| 2026-05-05 19:50 | 56.10821 | 23.37878 | 37880 ft | 427 kts | 191° |
| 2026-05-05 19:51 | 56.04907 | 23.36782 | 37883 ft | 428 kts | 191° |
| 2026-05-05 19:51 | 55.98969 | 23.35685 | 37883 ft | 428 kts | 191° |
| 2026-05-05 19:52 | 55.93092 | 23.34603 | 37883 ft | 428 kts | 191° |
| 2026-05-05 19:52 | 55.87144 | 23.33511 | 37885 ft | 428 kts | 191° |
| 2026-05-05 19:53 | 55.81239 | 23.32429 | 37884 ft | 428 kts | 191° |
| 2026-05-05 19:53 | 55.75326 | 23.31350 | 37887 ft | 429 kts | 191° |
| 2026-05-05 19:54 | 55.69385 | 23.30270 | 37892 ft | 429 kts | 191° |
| 2026-05-05 19:54 | 55.63461 | 23.29195 | 37889 ft | 429 kts | 191° |
| 2026-05-05 19:55 | 55.57546 | 23.28125 | 37885 ft | 429 kts | 191° |
| 2026-05-05 19:55 | 55.51584 | 23.27050 | 37888 ft | 430 kts | 191° |
| 2026-05-05 19:56 | 55.45664 | 23.25986 | 37889 ft | 430 kts | 191° |
| 2026-05-05 19:56 | 55.39721 | 23.24808 | 37888 ft | 429 kts | 193° |
| 2026-05-05 19:57 | 55.33836 | 23.23142 | 37888 ft | 428 kts | 194° |
| 2026-05-05 19:57 | 55.27947 | 23.21489 | 37890 ft | 429 kts | 194° |
| 2026-05-05 19:58 | 55.22080 | 23.19906 | 37892 ft | 430 kts | 193° |
| 2026-05-05 19:58 | 55.16172 | 23.18331 | 37886 ft | 430 kts | 193° |
| 2026-05-05 19:59 | 55.10243 | 23.16755 | 37882 ft | 430 kts | 193° |
| 2026-05-05 19:59 | 55.04322 | 23.15186 | 37884 ft | 431 kts | 193° |
| 2026-05-05 20:00 | 54.98432 | 23.13629 | 37893 ft | 431 kts | 193° |
| 2026-05-05 20:00 | 54.92502 | 23.12066 | 37890 ft | 431 kts | 193° |
| 2026-05-05 20:01 | 54.86569 | 23.10507 | 37891 ft | 431 kts | 193° |
| 2026-05-05 20:01 | 54.80639 | 23.08953 | 37900 ft | 431 kts | 193° |
| 2026-05-05 20:02 | 54.74738 | 23.07413 | 37890 ft | 430 kts | 193° |
| 2026-05-05 20:02 | 54.68838 | 23.05877 | 37888 ft | 428 kts | 193° |
| 2026-05-05 20:03 | 54.62932 | 23.04342 | 37889 ft | 428 kts | 193° |
| 2026-05-05 20:03 | 54.57093 | 23.02830 | 37887 ft | 427 kts | 193° |
| 2026-05-05 20:04 | 54.51207 | 23.01311 | 37885 ft | 427 kts | 193° |
| 2026-05-05 20:04 | 54.45319 | 22.99795 | 37888 ft | 427 kts | 193° |
| 2026-05-05 20:05 | 54.39484 | 22.98297 | 37894 ft | 427 kts | 193° |
| 2026-05-05 20:05 | 54.33618 | 22.96795 | 37886 ft | 427 kts | 193° |
| 2026-05-05 20:06 | 54.27738 | 22.95295 | 37876 ft | 427 kts | 193° |
| 2026-05-05 20:06 | 54.21868 | 22.93801 | 37888 ft | 427 kts | 193° |
| 2026-05-05 20:07 | 54.16026 | 22.92318 | 37875 ft | 426 kts | 193° |
| 2026-05-05 20:07 | 54.10154 | 22.90833 | 37873 ft | 426 kts | 193° |
| 2026-05-05 20:08 | 54.04354 | 22.89062 | 37867 ft | 423 kts | 197° |
| 2026-05-05 20:08 | 53.98618 | 22.86855 | 37866 ft | 423 kts | 197° |
| 2026-05-05 20:09 | 53.92857 | 22.84654 | 37860 ft | 423 kts | 197° |
| 2026-05-05 20:09 | 53.87136 | 22.82483 | 37859 ft | 423 kts | 197° |
| 2026-05-05 20:10 | 53.81390 | 22.80312 | 37854 ft | 424 kts | 197° |
| 2026-05-05 20:10 | 53.75621 | 22.78137 | 37855 ft | 424 kts | 197° |
| 2026-05-05 20:11 | 53.69902 | 22.75985 | 37849 ft | 424 kts | 197° |
| 2026-05-05 20:11 | 53.64141 | 22.73823 | 37850 ft | 424 kts | 197° |
| 2026-05-05 20:12 | 53.58384 | 22.71668 | 37850 ft | 424 kts | 197° |
| 2026-05-05 20:12 | 53.52612 | 22.69514 | 37850 ft | 425 kts | 197° |
| 2026-05-05 20:13 | 53.46838 | 22.67366 | 37841 ft | 424 kts | 197° |
| 2026-05-05 20:13 | 53.44005 | 22.66315 | 37641 ft | 421 kts | 197° |
| 2026-05-05 20:13 | 53.41157 | 22.65261 | 37131 ft | 418 kts | 197° |
| 2026-05-05 20:13 | 53.38327 | 22.64215 | 36537 ft | 415 kts | 197° |
| 2026-05-05 20:14 | 53.35514 | 22.63176 | 35935 ft | 411 kts | 197° |
| 2026-05-05 20:14 | 53.32728 | 22.62150 | 35368 ft | 408 kts | 197° |
| 2026-05-05 20:14 | 53.29976 | 22.61137 | 34808 ft | 404 kts | 197° |
| 2026-05-05 20:14 | 53.27238 | 22.60127 | 34265 ft | 401 kts | 197° |
| 2026-05-05 20:15 | 53.24555 | 22.59139 | 33715 ft | 398 kts | 197° |
| 2026-05-05 20:15 | 53.21857 | 22.58147 | 33130 ft | 394 kts | 197° |
| 2026-05-05 20:15 | 53.19185 | 22.57165 | 32559 ft | 390 kts | 197° |
| 2026-05-05 20:15 | 53.16586 | 22.56212 | 32005 ft | 386 kts | 197° |
| 2026-05-05 20:16 | 53.13977 | 22.55257 | 31458 ft | 383 kts | 197° |
| 2026-05-05 20:16 | 53.11384 | 22.54309 | 30910 ft | 380 kts | 197° |
| 2026-05-05 20:16 | 53.08818 | 22.53372 | 30384 ft | 377 kts | 197° |
| 2026-05-05 20:16 | 53.06275 | 22.52444 | 29860 ft | 374 kts | 197° |
| 2026-05-05 20:17 | 53.03743 | 22.51522 | 29263 ft | 370 kts | 197° |
| 2026-05-05 20:17 | 53.01233 | 22.50608 | 28696 ft | 367 kts | 197° |
| 2026-05-05 20:17 | 52.98750 | 22.49706 | 28135 ft | 363 kts | 196° |
| 2026-05-05 20:17 | 52.96289 | 22.48812 | 27576 ft | 360 kts | 196° |
| 2026-05-05 20:18 | 52.93881 | 22.47938 | 27027 ft | 358 kts | 196° |
| 2026-05-05 20:18 | 52.91455 | 22.47059 | 26496 ft | 355 kts | 196° |
| 2026-05-05 20:18 | 52.89052 | 22.46189 | 25972 ft | 352 kts | 196° |
| 2026-05-05 20:18 | 52.86668 | 22.45326 | 25452 ft | 350 kts | 196° |
| 2026-05-05 20:19 | 52.84298 | 22.44470 | 24938 ft | 347 kts | 195° |
| 2026-05-05 20:19 | 52.81967 | 22.43629 | 24440 ft | 345 kts | 195° |
| 2026-05-05 20:19 | 52.79628 | 22.42786 | 23954 ft | 343 kts | 195° |
| 2026-05-05 20:19 | 52.77305 | 22.41950 | 23478 ft | 341 kts | 195° |
| 2026-05-05 20:20 | 52.74988 | 22.41117 | 22952 ft | 338 kts | 195° |
| 2026-05-05 20:20 | 52.72700 | 22.40297 | 22426 ft | 335 kts | 195° |
| 2026-05-05 20:20 | 52.70448 | 22.39491 | 21929 ft | 332 kts | 195° |
| 2026-05-05 20:20 | 52.68194 | 22.38685 | 21419 ft | 330 kts | 195° |
| 2026-05-05 20:21 | 52.65952 | 22.37883 | 20926 ft | 327 kts | 195° |
| 2026-05-05 20:21 | 52.63762 | 22.37101 | 20450 ft | 325 kts | 195° |
| 2026-05-05 20:21 | 52.61566 | 22.36317 | 19985 ft | 322 kts | 195° |
| 2026-05-05 20:21 | 52.59382 | 22.35539 | 19511 ft | 320 kts | 195° |
| 2026-05-05 20:22 | 52.57218 | 22.34768 | 19069 ft | 318 kts | 195° |
| 2026-05-05 20:22 | 52.55059 | 22.34000 | 18626 ft | 315 kts | 195° |
| 2026-05-05 20:22 | 52.52932 | 22.33244 | 18197 ft | 313 kts | 195° |
| 2026-05-05 20:22 | 52.50807 | 22.32491 | 17714 ft | 311 kts | 195° |
| 2026-05-05 20:23 | 52.48704 | 22.31746 | 17260 ft | 307 kts | 195° |
| 2026-05-05 20:23 | 52.46623 | 22.31010 | 16796 ft | 305 kts | 195° |
| 2026-05-05 20:23 | 52.44563 | 22.30282 | 16359 ft | 301 kts | 195° |
| 2026-05-05 20:23 | 52.42520 | 22.29561 | 15901 ft | 299 kts | 195° |
| 2026-05-05 20:24 | 52.40516 | 22.28854 | 15468 ft | 296 kts | 195° |
| 2026-05-05 20:24 | 52.38515 | 22.28149 | 15033 ft | 294 kts | 195° |
| 2026-05-05 20:24 | 52.36517 | 22.27446 | 14606 ft | 291 kts | 195° |
| 2026-05-05 20:24 | 52.34557 | 22.26756 | 14193 ft | 289 kts | 196° |
| 2026-05-05 20:25 | 52.32596 | 22.26067 | 13889 ft | 284 kts | 196° |
| 2026-05-05 20:25 | 52.30644 | 22.25379 | 13791 ft | 288 kts | 196° |
| 2026-05-05 20:25 | 52.28690 | 22.24692 | 13777 ft | 286 kts | 195° |
| 2026-05-05 20:25 | 52.26767 | 22.24024 | 13778 ft | 287 kts | 192° |
| 2026-05-05 20:26 | 52.24798 | 22.23470 | 13780 ft | 288 kts | 190° |
| 2026-05-05 20:26 | 52.22818 | 22.22917 | 13778 ft | 287 kts | 192° |
| 2026-05-05 20:26 | 52.20861 | 22.22271 | 13781 ft | 286 kts | 197° |
| 2026-05-05 20:26 | 52.18969 | 22.21428 | 13780 ft | 284 kts | 205° |
| 2026-05-05 20:27 | 52.17312 | 22.19765 | 13780 ft | 280 kts | 225° |
| 2026-05-05 20:27 | 52.16163 | 22.17234 | 13777 ft | 279 kts | 245° |
| 2026-05-05 20:27 | 52.15688 | 22.14179 | 13776 ft | 283 kts | 265° |
| 2026-05-05 20:27 | 52.15742 | 22.10964 | 13778 ft | 284 kts | 270° |
| 2026-05-05 20:28 | 52.15818 | 22.07754 | 13780 ft | 284 kts | 270° |
| 2026-05-05 20:28 | 52.15884 | 22.04544 | 13781 ft | 284 kts | 269° |
| 2026-05-05 20:28 | 52.15942 | 22.01339 | 13780 ft | 284 kts | 269° |
| 2026-05-05 20:28 | 52.16121 | 21.98153 | 13778 ft | 286 kts | 276° |
| 2026-05-05 20:29 | 52.16437 | 21.94952 | 13778 ft | 286 kts | 276° |
| 2026-05-05 20:29 | 52.16746 | 21.91752 | 13768 ft | 286 kts | 276° |
| 2026-05-05 20:29 | 52.17050 | 21.88570 | 13589 ft | 284 kts | 275° |
| 2026-05-05 20:29 | 52.17351 | 21.85401 | 13165 ft | 283 kts | 275° |
| 2026-05-05 20:30 | 52.17648 | 21.82246 | 12711 ft | 281 kts | 275° |
| 2026-05-05 20:30 | 52.17942 | 21.79112 | 12246 ft | 280 kts | 275° |
| 2026-05-05 20:30 | 52.18237 | 21.75978 | 11794 ft | 278 kts | 275° |
| 2026-05-05 20:30 | 52.18523 | 21.72922 | 11347 ft | 276 kts | 275° |
| 2026-05-05 20:31 | 52.18806 | 21.69837 | 10895 ft | 273 kts | 271° |
| 2026-05-05 20:31 | 52.18528 | 21.66872 | 10634 ft | 260 kts | 246° |
| 2026-05-05 20:31 | 52.17528 | 21.64549 | 10525 ft | 245 kts | 223° |
| 2026-05-05 20:31 | 52.16151 | 21.63040 | 10436 ft | 232 kts | 213° |
| 2026-05-05 20:32 | 52.14837 | 21.61723 | 10336 ft | 217 kts | 213° |
| 2026-05-05 20:32 | 52.13597 | 21.60465 | 10236 ft | 203 kts | 214° |
| 2026-05-05 20:32 | 52.12437 | 21.59283 | 10151 ft | 191 kts | 214° |
| 2026-05-05 20:32 | 52.11344 | 21.58171 | 10083 ft | 178 kts | 214° |
| 2026-05-05 20:33 | 52.10353 | 21.57164 | 9788 ft | 162 kts | 214° |
| 2026-05-05 20:33 | 52.09366 | 21.56157 | 8963 ft | 176 kts | 214° |
| 2026-05-05 20:33 | 52.08321 | 21.55090 | 8412 ft | 176 kts | 214° |
| 2026-05-05 20:33 | 52.07300 | 21.54054 | 7924 ft | 174 kts | 214° |
| 2026-05-05 20:34 | 52.06276 | 21.53017 | 7446 ft | 172 kts | 214° |
| 2026-05-05 20:34 | 52.05264 | 21.51993 | 6967 ft | 171 kts | 214° |
| 2026-05-05 20:34 | 52.04257 | 21.50976 | 6505 ft | 170 kts | 214° |
| 2026-05-05 20:34 | 52.03259 | 21.49968 | 6034 ft | 168 kts | 214° |
| 2026-05-05 20:35 | 52.02259 | 21.48959 | 5565 ft | 168 kts | 214° |
| 2026-05-05 20:35 | 52.01271 | 21.47962 | 5104 ft | 167 kts | 214° |
| 2026-05-05 20:35 | 52.00283 | 21.46966 | 4645 ft | 166 kts | 214° |
| 2026-05-05 20:35 | 51.99317 | 21.45993 | 4197 ft | 165 kts | 214° |
| 2026-05-05 20:36 | 51.98351 | 21.45020 | 3771 ft | 163 kts | 214° |
| 2026-05-05 20:36 | 51.97392 | 21.44054 | 3344 ft | 162 kts | 214° |
| 2026-05-05 20:36 | 51.96453 | 21.43108 | 3070 ft | 158 kts | 214° |
| 2026-05-05 20:36 | 51.95497 | 21.42145 | 3002 ft | 161 kts | 214° |
| 2026-05-05 20:37 | 51.94866 | 21.41510 | 3004 ft | 161 kts | 214° |
| 2026-05-05 20:37 | 51.93908 | 21.40549 | 3006 ft | 161 kts | 215° |
| 2026-05-05 20:37 | 51.92637 | 21.39273 | 3006 ft | 163 kts | 215° |
| 2026-05-05 20:37 | 51.91675 | 21.38305 | 3004 ft | 162 kts | 214° |
| 2026-05-05 20:38 | 51.90724 | 21.37350 | 3009 ft | 161 kts | 214° |
| 2026-05-05 20:38 | 51.90094 | 21.36717 | 3008 ft | 161 kts | 214° |
| 2026-05-05 20:38 | 51.89196 | 21.35663 | 3005 ft | 159 kts | 227° |
| 2026-05-05 20:38 | 51.88587 | 21.34174 | 3010 ft | 159 kts | 243° |
| 2026-05-05 20:39 | 51.87925 | 21.32064 | 3004 ft | 160 kts | 242° |
| 2026-05-05 20:39 | 51.87407 | 21.30464 | 3004 ft | 160 kts | 242° |
| 2026-05-05 20:39 | 51.87054 | 21.29385 | 3002 ft | 160 kts | 242° |
| 2026-05-05 20:39 | 51.86537 | 21.27821 | 3003 ft | 160 kts | 242° |
| 2026-05-05 20:40 | 51.86015 | 21.26243 | 3004 ft | 159 kts | 243° |
| 2026-05-05 20:40 | 51.85835 | 21.24498 | 3002 ft | 163 kts | 276° |
| 2026-05-05 20:40 | 51.86406 | 21.22879 | 3005 ft | 175 kts | 313° |
| 2026-05-05 20:40 | 51.87493 | 21.21893 | 3011 ft | 181 kts | 328° |
| 2026-05-05 20:41 | 51.88618 | 21.21025 | 3010 ft | 179 kts | 327° |
| 2026-05-05 20:41 | 51.89712 | 21.20105 | 3006 ft | 180 kts | 325° |
| 2026-05-05 20:41 | 51.90817 | 21.19148 | 3005 ft | 181 kts | 325° |
| 2026-05-05 20:41 | 51.91927 | 21.18186 | 3007 ft | 181 kts | 325° |
| 2026-05-05 20:42 | 51.93041 | 21.17220 | 3001 ft | 181 kts | 325° |
| 2026-05-05 20:42 | 51.94151 | 21.16258 | 3007 ft | 181 kts | 325° |
| 2026-05-05 20:42 | 51.95265 | 21.15292 | 3001 ft | 181 kts | 325° |
| 2026-05-05 20:42 | 51.96379 | 21.14325 | 3004 ft | 182 kts | 325° |
| 2026-05-05 20:43 | 51.97492 | 21.13358 | 3002 ft | 182 kts | 326° |
| 2026-05-05 20:43 | 51.98597 | 21.12399 | 3001 ft | 182 kts | 326° |
| 2026-05-05 20:43 | 51.99716 | 21.11426 | 3002 ft | 183 kts | 326° |
| 2026-05-05 20:43 | 52.00833 | 21.10455 | 3001 ft | 183 kts | 326° |
| 2026-05-05 20:44 | 52.01958 | 21.09476 | 3000 ft | 183 kts | 326° |
| 2026-05-05 20:44 | 52.03071 | 21.08507 | 3001 ft | 183 kts | 326° |
| 2026-05-05 20:44 | 52.04185 | 21.07538 | 2847 ft | 182 kts | 326° |
| 2026-05-05 20:44 | 52.05288 | 21.06579 | 2605 ft | 170 kts | 326° |
| 2026-05-05 20:45 | 52.07068 | 21.05031 | 2215 ft | 124 kts | 323° |
| 2026-05-05 20:45 | 52.07822 | 21.04373 | 2062 ft | 130 kts | 324° |
| 2026-05-05 20:45 | 52.08608 | 21.03685 | 1870 ft | 127 kts | 326° |
| 2026-05-05 20:46 | 52.09378 | 21.03012 | 1670 ft | 125 kts | 327° |
| 2026-05-05 20:46 | 52.10131 | 21.02327 | 1530 ft | 126 kts | 326° |
| 2026-05-05 20:46 | 52.10891 | 21.01625 | 1345 ft | 126 kts | 328° |
| 2026-05-05 20:46 | 52.11651 | 21.00979 | 1144 ft | 122 kts | 330° |
| 2026-05-05 20:47 | 52.12386 | 21.00360 | 995 ft | 118 kts | 331° |
| 2026-05-05 20:47 | 52.13106 | 20.99751 | 879 ft | 116 kts | 331° |
| 2026-05-05 20:47 | 52.13815 | 20.99122 | 751 ft | 116 kts | 330° |
| 2026-05-05 20:47 | 52.14514 | 20.98497 | 595 ft | 114 kts | 332° |
| 2026-05-05 20:48 | 52.15201 | 20.97900 | 447 ft | 112 kts | 332° |
| 2026-05-05 20:48 | 52.15893 | 20.97307 | 372 ft | 109 kts | 327° |
| 2026-05-05 20:48 | 52.16442 | 20.96826 | 364 ft | 78 kts | 332° |
| 2026-05-05 20:48 | 52.16811 | 20.96503 | 361 ft | 47 kts | 333° |
| 2026-05-05 20:49 | 52.17064 | 20.96271 | 360 ft | 35 kts | 332° |
| 2026-05-05 20:49 | 52.17249 | 20.96114 | 359 ft | 25 kts | 341° |
| 2026-05-05 20:49 | 52.17379 | 20.96062 | 362 ft | 14 kts | 355° |
| 2026-05-05 20:49 | 52.17475 | 20.96061 | 361 ft | 16 kts | 357° |
| 2026-05-05 20:50 | 52.17523 | 20.96062 | 362 ft | 0 kts | 1° |
| 2026-05-05 20:50 | 52.17526 | 20.96062 | 361 ft | 2 kts | 3° |
| 2026-05-05 20:50 | 52.17559 | 20.96071 | 365 ft | 3 kts | 17° |
| 2026-05-05 20:50 | 52.17602 | 20.96106 | 361 ft | 11 kts | 27° |
| 2026-05-05 20:51 | 52.17644 | 20.96133 | 361 ft | 10 kts | 13° |
| 2026-05-05 20:51 | 52.17685 | 20.96133 | 363 ft | 2 kts | 347° |
| 2026-05-05 20:51 | 52.17726 | 20.96105 | 361 ft | 10 kts | 336° |
| 2026-05-05 20:51 | 52.17731 | 20.96101 | 365 ft | 0 kts | 335° |
| 2026-05-05 20:52 | 52.17741 | 20.96093 | 361 ft | 0 kts | 335° |
| 2026-05-05 20:52 | 52.17761 | 20.96076 | 363 ft | 4 kts | 332° |
| 2026-05-05 20:52 | 52.17783 | 20.96090 | 367 ft | 10 kts | 38° |
| 2026-05-05 20:52 | 52.17815 | 20.96185 | 365 ft | 0 kts | 57° |
| 2026-05-05 20:53 | 52.17838 | 20.96240 | 363 ft | 7 kts | 55° |
| 2026-05-05 20:53 | 52.17878 | 20.96228 | 363 ft | 11 kts | 322° |
| 2026-05-05 20:53 | 52.17907 | 20.96200 | 362 ft | 0 kts | 334° |
| 2026-05-05 20:53 | 52.17916 | 20.96194 | 362 ft | 0 kts | 339° |